Time;durP1;ratioP1;P1;durP2;ratioP2;P2;SDS_P1;SDS_P2;PMS_P1;PMS_P2;Temp;Humidity;BMP_temperature;BMP_pressure;BME280_temperature;BME280_humidity;BME280_pressure;Samples;Min_cycle;Max_cycle;Signal;HPM_P1;HPM_P2
2021/12/30 00:00:24;;;;;;;25.50;14.57;;;5.10;99.90;;;;;;4162254;28;19972;-55
2021/12/30 00:02:29;;;;;;;29.08;13.77;;;5.10;99.90;;;;;;4164977;28;20049;-55
2021/12/30 00:04:32;;;;;;;36.40;13.98;;;5.20;99.90;;;;;;4162575;28;20064;-55
2021/12/30 00:06:41;;;;;;;75.82;17.92;;;5.30;99.90;;;;;;4175887;28;20041;-54
2021/12/30 00:08:44;;;;;;;51.80;16.80;;;5.20;99.90;;;;;;4159508;28;20490;-56
2021/12/30 00:10:47;;;;;;;155.82;21.80;;;5.20;99.90;;;;;;4164521;28;20494;-56
2021/12/30 00:12:51;;;;;;;271.50;32.28;;;5.10;99.90;;;;;;4163487;28;20057;-56
2021/12/30 00:14:54;;;;;;;209.80;27.23;;;5.10;99.90;;;;;;4165060;28;20103;-55
2021/12/30 00:16:56;;;;;;;185.25;24.00;;;5.10;99.90;;;;;;4161925;28;20057;-55
2021/12/30 00:18:58;;;;;;;43.17;18.33;;;5.10;99.90;;;;;;4164212;28;20054;-55
2021/12/30 00:21:01;;;;;;;39.63;19.05;;;5.10;99.90;;;;;;4162639;28;20054;-55
2021/12/30 00:23:06;;;;;;;111.45;17.75;;;5.20;99.90;;;;;;4164497;28;20060;-55
2021/12/30 00:25:11;;;;;;;142.48;19.70;;;5.20;99.90;;;;;;4162514;28;20049;-56
2021/12/30 00:27:13;;;;;;;112.90;17.98;;;5.10;99.90;;;;;;4164844;28;20061;-56
2021/12/30 00:29:15;;;;;;;247.45;24.20;;;5.00;99.90;;;;;;4162362;28;20448;-56
2021/12/30 00:31:17;;;;;;;152.25;19.90;;;5.00;99.90;;;;;;4164882;28;20064;-56
2021/12/30 00:33:20;;;;;;;213.02;22.20;;;4.90;99.90;;;;;;4161982;28;20512;-56
2021/12/30 00:35:26;;;;;;;201.45;21.88;;;4.90;99.90;;;;;;4164163;28;20088;-56
2021/12/30 00:37:42;;;;;;;260.23;23.67;;;4.90;99.90;;;;;;4162346;28;20064;-56
2021/12/30 00:39:44;;;;;;;162.02;21.95;;;4.90;99.90;;;;;;4164174;28;20049;-56
2021/12/30 00:41:46;;;;;;;47.50;14.82;;;4.80;99.90;;;;;;4166149;28;20052;-55
2021/12/30 00:43:48;;;;;;;195.07;20.08;;;5.00;99.90;;;;;;4166102;28;20120;-56
2021/12/30 00:45:50;;;;;;;103.90;16.67;;;4.90;99.90;;;;;;4162775;28;20041;-55
2021/12/30 00:47:53;;;;;;;159.48;16.85;;;5.00;99.90;;;;;;4162818;28;20049;-55
2021/12/30 00:49:56;;;;;;;110.97;15.57;;;5.00;99.90;;;;;;4163873;28;20037;-56
2021/12/30 00:51:58;;;;;;;30.27;11.27;;;5.00;99.90;;;;;;4158211;28;20072;-55
2021/12/30 00:54:00;;;;;;;137.27;15.90;;;4.90;99.90;;;;;;4163307;28;20433;-55
2021/12/30 00:56:06;;;;;;;165.15;16.58;;;4.90;99.90;;;;;;4161871;28;20379;-56
2021/12/30 00:58:09;;;;;;;143.63;14.00;;;4.80;99.90;;;;;;4164067;28;20061;-55
2021/12/30 01:00:16;;;;;;;121.35;13.85;;;4.80;99.90;;;;;;4161969;28;20050;-56
2021/12/30 01:02:18;;;;;;;103.95;13.43;;;4.70;99.90;;;;;;4163874;28;20532;-55
2021/12/30 01:04:21;;;;;;;;;;;4.70;99.90;;;;;;4163311;28;20112;-55
2021/12/30 01:06:23;;;;;;;138.30;13.50;;;4.80;99.90;;;;;;4164329;28;19960;-56
2021/12/30 01:08:25;;;;;;;168.45;14.43;;;4.70;99.90;;;;;;4160968;28;20045;-56
2021/12/30 01:10:27;;;;;;;104.28;12.88;;;4.60;99.90;;;;;;4163955;28;20057;-57
2021/12/30 01:12:34;;;;;;;70.35;11.60;;;4.70;99.90;;;;;;4161004;28;20033;-55
2021/12/30 01:14:37;;;;;;;;;;;4.60;99.90;;;;;;4164329;28;20072;-56
2021/12/30 01:16:42;;;;;;;106.38;11.48;;;4.60;99.90;;;;;;4162070;28;19959;-56
2021/12/30 01:20:58;;;;;;;67.03;12.50;;;4.60;99.90;;;;;;4162711;28;20084;-56
2021/12/30 01:23:00;;;;;;;123.72;14.40;;;4.60;99.90;;;;;;4163702;28;20387;-56
2021/12/30 01:25:06;;;;;;;68.00;12.20;;;4.60;99.90;;;;;;4160843;28;20080;-56
2021/12/30 01:27:11;;;;;;;76.55;12.30;;;4.60;99.90;;;;;;4163892;28;20041;-56
2021/12/30 01:29:13;;;;;;;89.38;13.50;;;4.60;99.90;;;;;;4159927;28;20045;-56
2021/12/30 01:31:17;;;;;;;125.60;16.27;;;4.60;99.90;;;;;;4165193;28;20038;-56
2021/12/30 01:33:20;;;;;;;88.57;14.10;;;4.50;99.90;;;;;;4161256;28;20037;-55
2021/12/30 01:35:25;;;;;;;15.60;12.43;;;4.50;99.90;;;;;;4163491;28;20053;-56
2021/12/30 01:37:27;;;;;;;34.55;11.10;;;4.60;99.90;;;;;;4162262;28;20627;-56
2021/12/30 01:39:31;;;;;;;436.88;27.95;;;4.70;99.90;;;;;;4163006;28;20069;-56
2021/12/30 01:41:33;;;;;;;251.52;19.13;;;4.50;99.90;;;;;;4159119;28;20144;-56
2021/12/30 01:43:37;;;;;;;44.10;11.57;;;4.40;99.90;;;;;;4177679;28;20120;-55
2021/12/30 01:45:41;;;;;;;287.13;21.20;;;4.40;99.90;;;;;;4162826;28;20060;-56
2021/12/30 01:47:50;;;;;;;37.67;12.10;;;4.50;99.90;;;;;;4163206;28;20045;-56
2021/12/30 01:50:10;;;;;;;95.55;13.52;;;4.60;99.90;;;;;;4162179;28;20041;-56
2021/12/30 01:52:13;;;;;;;128.80;14.65;;;4.60;99.90;;;;;;4163559;28;20080;-56
2021/12/30 01:54:17;;;;;;;312.83;21.33;;;4.50;99.90;;;;;;4162212;28;20043;-56
2021/12/30 01:56:19;;;;;;;191.57;16.85;;;4.50;99.90;;;;;;4162774;28;20621;-56
2021/12/30 01:58:21;;;;;;;;;;;4.50;99.90;;;;;;4160527;28;20580;-56
2021/12/30 02:00:25;;;;;;;390.77;26.35;;;4.50;99.90;;;;;;4162315;28;20301;-55
2021/12/30 02:02:27;;;;;;;353.85;21.50;;;4.40;99.90;;;;;;4160519;28;20057;-55
2021/12/30 02:04:30;;;;;;;172.57;15.70;;;4.30;99.90;;;;;;4161932;28;20050;-54
2021/12/30 02:06:32;;;;;;;;;;;4.30;99.90;;;;;;4165542;28;20107;-55
2021/12/30 02:08:34;;;;;;;113.38;12.82;;;4.30;99.90;;;;;;4161473;28;19921;-56
2021/12/30 02:10:37;;;;;;;182.77;16.27;;;4.30;99.90;;;;;;4163154;28;20100;-55
2021/12/30 02:12:40;;;;;;;166.45;15.98;;;4.20;99.90;;;;;;4160924;28;20061;-56
2021/12/30 02:14:42;;;;;;;198.90;18.33;;;4.20;99.90;;;;;;4163643;28;20390;-56
2021/12/30 02:16:44;;;;;;;243.57;19.58;;;4.10;99.90;;;;;;4160701;28;20512;-55
2021/12/30 02:18:58;;;;;;;228.70;19.55;;;4.10;99.90;;;;;;4162073;28;20068;-55
2021/12/30 02:21:02;;;;;;;193.90;20.20;;;4.00;99.90;;;;;;4160178;28;20056;-55
2021/12/30 02:23:04;;;;;;;215.68;18.75;;;3.90;99.90;;;;;;4161669;28;20398;-55
2021/12/30 02:25:07;;;;;;;130.30;16.42;;;3.90;99.90;;;;;;4160197;28;20030;-53
2021/12/30 02:27:09;;;;;;;;;;;3.90;99.90;;;;;;4163727;28;20038;-55
2021/12/30 02:29:17;;;;;;;135.27;13.55;;;3.90;99.90;;;;;;4160739;28;19921;-56
2021/12/30 02:31:28;;;;;;;134.05;13.82;;;3.90;99.90;;;;;;4163137;28;20045;-56
2021/12/30 02:33:43;;;;;;;47.63;11.27;;;3.80;99.90;;;;;;4159475;28;20038;-55
2021/12/30 02:35:45;;;;;;;161.98;13.95;;;3.80;99.90;;;;;;4163431;28;20064;-55
2021/12/30 02:37:50;;;;;;;21.17;9.40;;;3.90;99.90;;;;;;4159652;28;20545;-56
2021/12/30 02:39:54;;;;;;;59.10;10.98;;;3.90;99.90;;;;;;4160841;28;20578;-55
2021/12/30 02:42:01;;;;;;;44.20;11.27;;;3.90;99.90;;;;;;4159867;28;20045;-55
2021/12/30 02:44:06;;;;;;;110.60;12.63;;;3.90;99.90;;;;;;4162163;28;20132;-56
2021/12/30 02:46:08;;;;;;;174.90;15.27;;;4.00;99.90;;;;;;4161143;28;20061;-55
2021/12/30 02:48:19;;;;;;;69.25;11.95;;;3.80;99.90;;;;;;4161536;28;20037;-55
2021/12/30 02:50:21;;;;;;;37.10;12.13;;;3.70;99.90;;;;;;4159226;28;20037;-56
2021/12/30 02:52:23;;;;;;;35.17;10.63;;;3.70;99.90;;;;;;4163216;28;20124;-56
2021/12/30 02:54:25;;;;;;;90.95;12.88;;;3.80;99.90;;;;;;4160710;28;20041;-55
2021/12/30 02:56:29;;;;;;;56.40;12.68;;;3.90;99.90;;;;;;4163029;28;20041;-55
2021/12/30 02:58:31;;;;;;;27.20;10.20;;;4.00;99.90;;;;;;4160588;28;20089;-55
2021/12/30 03:00:35;;;;;;;55.25;11.80;;;4.00;99.90;;;;;;4157197;28;20144;-55
2021/12/30 03:02:39;;;;;;;34.42;11.32;;;3.90;99.90;;;;;;4159227;28;20069;-56
2021/12/30 03:04:42;;;;;;;66.20;15.07;;;3.70;99.90;;;;;;4161850;28;20482;-56
2021/12/30 03:06:44;;;;;;;50.10;12.60;;;3.70;99.90;;;;;;4161911;28;20061;-56
2021/12/30 03:08:47;;;;;;;170.27;16.45;;;3.80;99.90;;;;;;4162221;28;20053;-55
2021/12/30 03:10:50;;;;;;;65.90;12.48;;;3.70;99.90;;;;;;4161788;28;20037;-56
2021/12/30 03:12:57;;;;;;;174.60;17.40;;;3.70;99.90;;;;;;4161879;28;20513;-56
2021/12/30 03:15:00;;;;;;;28.58;10.85;;;3.60;99.90;;;;;;4160644;28;20044;-55
2021/12/30 03:17:02;;;;;;;137.10;14.85;;;3.70;99.90;;;;;;4162320;28;20080;-55
2021/12/30 03:19:05;;;;;;;45.10;12.07;;;3.70;99.90;;;;;;4160555;28;20048;-56
2021/12/30 03:21:09;;;;;;;114.60;12.95;;;3.80;99.90;;;;;;4162592;28;20072;-55
2021/12/30 03:23:11;;;;;;;38.13;10.90;;;3.80;99.90;;;;;;4159053;28;20034;-55
2021/12/30 03:25:15;;;;;;;58.28;11.68;;;3.70;99.90;;;;;;4148482;28;20029;-55
2021/12/30 03:27:17;;;;;;;65.88;12.20;;;3.60;99.90;;;;;;4158277;28;20116;-56
2021/12/30 03:29:19;;;;;;;26.10;9.93;;;3.60;99.90;;;;;;4155958;28;20485;-55
2021/12/30 03:31:22;;;;;;;;;;;3.60;99.90;;;;;;4160368;28;20038;-55
2021/12/30 03:33:25;;;;;;;37.35;10.40;;;3.60;99.90;;;;;;4161215;28;20357;-55
2021/12/30 03:35:27;;;;;;;46.03;11.30;;;3.50;99.90;;;;;;4163004;28;20052;-56
2021/12/30 03:37:29;;;;;;;36.75;9.98;;;3.50;99.90;;;;;;4160479;28;20069;-55
2021/12/30 03:39:31;;;;;;;39.13;10.73;;;3.40;99.90;;;;;;4161661;28;20041;-55
2021/12/30 03:41:34;;;;;;;53.83;10.43;;;3.40;99.90;;;;;;4160463;28;20050;-55
2021/12/30 03:43:36;;;;;;;133.48;14.20;;;3.50;99.90;;;;;;4156668;28;20049;-55
2021/12/30 03:45:38;;;;;;;41.67;10.15;;;3.40;99.90;;;;;;4156731;28;20049;-55
2021/12/30 03:47:44;;;;;;;103.70;13.80;;;3.40;99.90;;;;;;4164995;28;20402;-55
2021/12/30 03:49:46;;;;;;;87.95;13.20;;;3.30;99.90;;;;;;4165269;28;20120;-56
2021/12/30 03:51:55;;;;;;;;;;;3.30;99.90;;;;;;4159188;28;20713;-56
2021/12/30 03:53:57;;;;;;;148.02;16.00;;;3.40;99.90;;;;;;4153292;28;20336;-56
2021/12/30 03:56:12;;;;;;;157.38;15.43;;;3.40;99.90;;;;;;4165368;28;20069;-55
2021/12/30 03:58:14;;;;;;;342.52;25.23;;;3.40;99.90;;;;;;4162423;28;20109;-56
2021/12/30 04:00:19;;;;;;;325.73;24.42;;;3.30;99.90;;;;;;4165828;28;20068;-55
2021/12/30 04:02:21;;;;;;;272.98;24.63;;;3.30;99.90;;;;;;4162182;28;20116;-55
2021/12/30 04:04:24;;;;;;;490.58;33.78;;;3.30;99.90;;;;;;4165559;28;20073;-55
2021/12/30 04:06:33;;;;;;;316.30;30.58;;;3.20;99.90;;;;;;4162334;28;20402;-55
2021/12/30 04:08:35;;;;;;;310.58;27.88;;;3.10;99.90;;;;;;4176072;28;20033;-55
2021/12/30 04:10:37;;;;;;;363.58;32.88;;;3.10;99.90;;;;;;4169882;28;20029;-55
2021/12/30 04:12:40;;;;;;;227.05;28.10;;;3.00;99.90;;;;;;4164082;28;20473;-56
2021/12/30 04:14:42;;;;;;;460.95;38.58;;;3.10;99.90;;;;;;4162738;28;20034;-55
2021/12/30 04:16:53;;;;;;;273.40;28.52;;;3.00;99.90;;;;;;4165764;28;20092;-55
2021/12/30 04:18:56;;;;;;;;;;;3.00;99.90;;;;;;4162852;28;20145;-55
2021/12/30 04:20:58;;;;;;;173.65;19.60;;;3.00;99.90;;;;;;4164785;28;19921;-55
2021/12/30 04:23:00;;;;;;;359.17;24.25;;;3.00;99.90;;;;;;4161735;28;20510;-55
2021/12/30 04:25:03;;;;;;;214.25;20.63;;;3.00;99.90;;;;;;4165029;28;20530;-55
2021/12/30 04:27:05;;;;;;;142.20;16.35;;;2.90;99.90;;;;;;4162413;28;20521;-55
2021/12/30 04:29:07;;;;;;;143.20;15.82;;;3.00;99.90;;;;;;4164685;28;20050;-55
2021/12/30 04:31:10;;;;;;;127.43;14.40;;;3.00;99.90;;;;;;4162533;28;20045;-55
2021/12/30 04:33:12;;;;;;;128.15;14.98;;;2.90;99.90;;;;;;4163427;28;20386;-54
2021/12/30 04:35:14;;;;;;;99.38;15.05;;;3.00;99.90;;;;;;4160984;28;20065;-54
2021/12/30 04:37:16;;;;;;;127.95;15.77;;;3.00;99.90;;;;;;4164672;28;20048;-54
2021/12/30 04:39:18;;;;;;;156.80;18.38;;;2.90;99.90;;;;;;4163450;28;20044;-55
2021/12/30 04:41:21;;;;;;;121.90;16.42;;;2.80;99.90;;;;;;4164749;28;20034;-55
2021/12/30 04:43:24;;;;;;;196.52;18.23;;;2.80;99.90;;;;;;4160945;28;20100;-55
2021/12/30 04:45:27;;;;;;;;;;;2.70;99.90;;;;;;4156344;28;20073;-54
2021/12/30 04:47:30;;;;;;;129.80;16.98;;;2.70;99.90;;;;;;4160485;28;19925;-55
2021/12/30 04:49:32;;;;;;;123.43;17.50;;;2.70;99.90;;;;;;4164663;28;20692;-55
2021/12/30 04:51:34;;;;;;;196.00;24.15;;;2.70;99.90;;;;;;4162111;28;20049;-54
2021/12/30 04:53:36;;;;;;;228.68;24.17;;;2.60;99.90;;;;;;4162770;28;20430;-54
2021/12/30 04:56:03;;;;;;;139.07;20.90;;;2.60;99.90;;;;;;4161654;28;20083;-55
2021/12/30 04:58:19;;;;;;;289.58;24.88;;;2.60;99.90;;;;;;4160866;28;20071;-55
2021/12/30 05:00:21;;;;;;;132.35;15.23;;;2.60;99.90;;;;;;4163876;28;20065;-55
2021/12/30 05:02:29;;;;;;;109.47;18.73;;;2.60;99.90;;;;;;4161157;28;20099;-54
2021/12/30 05:04:31;;;;;;;73.78;17.40;;;2.50;99.90;;;;;;4163383;28;20125;-55
2021/12/30 05:06:36;;;;;;;66.80;15.25;;;2.60;99.90;;;;;;4161375;28;20069;-54
2021/12/30 05:08:38;;;;;;;111.53;17.33;;;2.60;99.90;;;;;;4171667;28;20056;-55
2021/12/30 05:10:40;;;;;;;78.28;13.75;;;2.60;99.90;;;;;;4170330;28;20037;-55
2021/12/30 05:12:42;;;;;;;84.05;15.70;;;2.50;99.90;;;;;;4169831;28;20453;-55
2021/12/30 05:14:44;;;;;;;167.48;20.95;;;2.50;99.90;;;;;;4160968;28;20041;-55
2021/12/30 05:16:48;;;;;;;132.68;16.70;;;2.50;99.90;;;;;;4163649;28;20037;-54
2021/12/30 05:18:55;;;;;;;162.43;20.40;;;2.50;99.90;;;;;;4160142;28;20049;-55
2021/12/30 05:21:01;;;;;;;95.30;16.90;;;2.40;99.90;;;;;;4162675;28;20524;-55
2021/12/30 05:23:05;;;;;;;142.73;22.77;;;2.40;99.90;;;;;;4160370;28;20039;-55
2021/12/30 05:25:08;;;;;;;93.63;20.13;;;2.40;99.90;;;;;;4164265;28;20490;-55
2021/12/30 05:27:10;;;;;;;160.90;21.60;;;2.40;99.90;;;;;;4162560;28;20352;-55
2021/12/30 05:29:16;;;;;;;37.58;17.27;;;2.40;99.90;;;;;;4163854;28;20061;-53
2021/12/30 05:31:18;;;;;;;60.03;18.05;;;2.40;99.90;;;;;;4161751;28;20037;-55
2021/12/30 05:33:21;;;;;;;98.10;22.33;;;2.40;99.90;;;;;;4163431;28;20048;-55
2021/12/30 05:35:23;;;;;;;70.85;20.67;;;2.40;99.90;;;;;;4159629;28;20034;-55
2021/12/30 05:37:25;;;;;;;;;;;2.40;99.90;;;;;;4164577;28;20045;-54
2021/12/30 05:39:29;;;;;;;148.20;29.55;;;2.40;99.90;;;;;;4161253;28;20408;-53
2021/12/30 05:41:31;;;;;;;246.60;32.70;;;2.30;99.90;;;;;;4163252;28;20124;-54
2021/12/30 05:43:33;;;;;;;332.10;38.55;;;2.40;99.90;;;;;;4161908;28;20065;-55
2021/12/30 05:45:35;;;;;;;92.85;27.38;;;2.30;99.90;;;;;;4161967;28;20425;-55
2021/12/30 05:47:38;;;;;;;248.40;32.72;;;2.30;99.90;;;;;;4161822;28;20482;-55
2021/12/30 05:49:40;;;;;;;238.73;32.15;;;2.40;99.90;;;;;;4160932;28;20048;-54
2021/12/30 05:51:42;;;;;;;258.77;28.15;;;2.40;99.90;;;;;;4161255;28;20072;-54
2021/12/30 05:53:44;;;;;;;98.13;22.77;;;2.40;99.90;;;;;;4162393;28;20080;-55
2021/12/30 05:55:46;;;;;;;165.75;25.35;;;2.40;99.90;;;;;;4159808;28;20103;-55
2021/12/30 05:57:49;;;;;;;107.38;19.48;;;2.50;99.90;;;;;;4164687;28;20073;-55
2021/12/30 05:59:51;;;;;;;252.55;28.08;;;2.40;99.90;;;;;;4160289;28;20038;-55
2021/12/30 06:01:53;;;;;;;271.17;29.17;;;2.40;99.90;;;;;;4171435;28;20071;-55
2021/12/30 06:03:56;;;;;;;94.22;21.63;;;2.40;99.90;;;;;;4161135;28;20045;-55
2021/12/30 06:05:58;;;;;;;125.18;18.85;;;2.40;99.90;;;;;;4162436;28;20042;-55
2021/12/30 06:08:00;;;;;;;230.35;26.80;;;2.40;99.90;;;;;;4159346;28;20465;-55
2021/12/30 06:10:03;;;;;;;215.85;26.27;;;2.40;99.90;;;;;;4178631;28;20081;-55
2021/12/30 06:12:06;;;;;;;184.90;19.08;;;2.40;99.90;;;;;;4161822;28;20033;-55
2021/12/30 06:14:08;;;;;;;204.68;24.90;;;2.40;99.90;;;;;;4163084;28;20045;-55
2021/12/30 06:16:10;;;;;;;232.05;25.88;;;2.40;99.90;;;;;;4159878;28;20494;-55
2021/12/30 06:18:12;;;;;;;93.47;17.95;;;2.40;99.90;;;;;;4155610;28;20077;-55
2021/12/30 06:20:14;;;;;;;198.35;19.48;;;2.40;99.90;;;;;;4160403;28;20076;-54
2021/12/30 06:22:16;;;;;;;73.15;18.20;;;2.40;99.90;;;;;;4163038;28;20041;-55
2021/12/30 06:24:18;;;;;;;96.35;22.52;;;2.30;99.90;;;;;;4160482;28;20132;-55
2021/12/30 06:26:20;;;;;;;22.90;16.63;;;2.30;99.90;;;;;;4162702;28;20065;-55
2021/12/30 06:28:22;;;;;;;57.92;18.88;;;2.40;99.90;;;;;;4159821;28;20132;-55
2021/12/30 06:30:25;;;;;;;78.20;15.73;;;2.40;99.90;;;;;;4162767;28;20045;-54
2021/12/30 06:32:27;;;;;;;45.05;14.68;;;2.40;99.90;;;;;;4160503;28;20466;-55
2021/12/30 06:34:29;;;;;;;16.05;10.07;;;2.40;99.90;;;;;;4157776;28;20030;-55
2021/12/30 06:36:31;;;;;;;12.18;11.60;;;2.40;99.90;;;;;;4159797;28;20041;-55
2021/12/30 06:38:33;;;;;;;12.60;11.85;;;2.40;99.90;;;;;;4148527;28;20048;-55
2021/12/30 06:40:36;;;;;;;23.92;14.45;;;2.50;99.90;;;;;;4160792;28;20045;-55
2021/12/30 06:42:38;;;;;;;267.65;27.40;;;2.50;99.90;;;;;;4162790;28;20073;-55
2021/12/30 06:44:40;;;;;;;;;;;2.40;99.90;;;;;;4161242;28;20041;-55
2021/12/30 06:46:52;;;;;;;342.98;34.83;;;2.40;99.90;;;;;;4160680;28;20380;-54
2021/12/30 06:48:55;;;;;;;459.77;43.95;;;2.30;99.90;;;;;;4162141;28;20448;-55
2021/12/30 06:50:59;;;;;;;456.67;32.38;;;2.20;99.90;;;;;;4160876;28;20038;-55
2021/12/30 06:53:04;;;;;;;443.42;44.88;;;2.20;99.90;;;;;;4162244;28;20458;-54
2021/12/30 06:55:07;;;;;;;268.42;30.52;;;2.20;99.90;;;;;;4147969;28;20429;-55
2021/12/30 06:57:12;;;;;;;380.48;37.22;;;2.20;99.90;;;;;;4167137;28;20064;-54
2021/12/30 06:59:15;;;;;;;361.10;37.40;;;2.20;99.90;;;;;;4169912;28;20116;-55
2021/12/30 07:01:17;;;;;;;120.70;26.40;;;2.20;99.90;;;;;;4163291;28;20099;-54
2021/12/30 07:03:19;;;;;;;238.52;19.48;;;2.20;99.90;;;;;;4160959;28;20083;-55
2021/12/30 07:05:21;;;;;;;94.95;23.38;;;2.20;99.90;;;;;;4162841;28;20462;-55
2021/12/30 07:07:23;;;;;;;227.88;27.60;;;2.20;99.90;;;;;;4160720;28;20074;-54
2021/12/30 07:09:25;;;;;;;290.10;20.95;;;2.30;99.90;;;;;;4160729;28;20073;-55
2021/12/30 07:11:27;;;;;;;508.83;37.53;;;2.30;99.90;;;;;;4154525;28;20087;-55
2021/12/30 07:13:30;;;;;;;166.35;12.52;;;2.20;99.90;;;;;;4154100;28;20038;-55
2021/12/30 07:15:32;;;;;;;486.40;32.17;;;2.20;99.90;;;;;;4156849;28;20092;-55
2021/12/30 07:17:34;;;;;;;284.63;26.55;;;2.20;99.90;;;;;;4162796;28;20049;-55
2021/12/30 07:19:36;;;;;;;99.03;9.93;;;2.20;99.90;;;;;;4158873;28;20045;-55
2021/12/30 07:21:39;;;;;;;151.75;17.30;;;2.10;99.90;;;;;;4158876;28;20041;-55
2021/12/30 07:23:41;;;;;;;146.23;21.75;;;2.20;99.90;;;;;;4152806;28;20042;-55
2021/12/30 07:25:43;;;;;;;91.68;22.50;;;2.20;99.90;;;;;;4165065;28;20045;-55
2021/12/30 07:27:52;;;;;;;173.40;19.60;;;2.20;99.90;;;;;;4157158;28;20506;-55
2021/12/30 07:29:55;;;;;;;165.40;17.60;;;2.20;99.90;;;;;;4173860;28;20485;-55
2021/12/30 07:31:57;;;;;;;100.18;16.33;;;2.20;99.90;;;;;;4164269;28;20472;-55
2021/12/30 07:33:59;;;;;;;149.30;18.25;;;2.20;99.90;;;;;;4161442;28;20120;-54
2021/12/30 07:36:01;;;;;;;18.45;13.80;;;2.30;99.90;;;;;;4162385;28;20072;-55
2021/12/30 07:38:04;;;;;;;185.23;21.27;;;2.30;99.90;;;;;;4164229;28;20042;-55
2021/12/30 07:40:07;;;;;;;156.20;22.90;;;2.40;99.90;;;;;;4164387;28;20049;-55
2021/12/30 07:42:09;;;;;;;166.80;23.50;;;2.40;99.90;;;;;;4157987;28;20072;-55
2021/12/30 07:44:11;;;;;;;286.45;30.17;;;2.40;99.90;;;;;;4161007;28;20116;-54
2021/12/30 07:46:14;;;;;;;144.77;26.23;;;2.40;99.90;;;;;;4157188;28;20037;-55
2021/12/30 07:48:18;;;;;;;359.52;37.50;;;2.40;99.90;;;;;;4158331;28;20041;-54
2021/12/30 07:50:22;;;;;;;244.48;34.95;;;2.40;99.90;;;;;;4163050;28;20068;-54
2021/12/30 07:52:24;;;;;;;60.88;24.38;;;2.40;99.90;;;;;;4163340;28;20042;-55
2021/12/30 07:54:26;;;;;;;237.13;35.63;;;2.50;99.90;;;;;;4158361;28;20030;-55
2021/12/30 07:56:28;;;;;;;232.55;34.78;;;2.40;99.90;;;;;;4154442;28;20068;-54
2021/12/30 07:58:30;;;;;;;273.63;35.55;;;2.50;99.90;;;;;;4155442;28;20041;-55
2021/12/30 08:00:33;;;;;;;280.00;37.03;;;2.40;99.90;;;;;;4159260;28;21192;-55
2021/12/30 08:02:35;;;;;;;252.38;34.83;;;2.40;99.90;;;;;;4155906;28;20498;-53
2021/12/30 08:04:37;;;;;;;350.90;41.90;;;2.40;99.90;;;;;;4159662;28;20072;-54
2021/12/30 08:06:39;;;;;;;257.25;33.90;;;2.40;99.90;;;;;;4160651;28;20038;-54
2021/12/30 08:08:42;;;;;;;338.35;36.92;;;2.40;99.90;;;;;;4159781;28;20757;-55
2021/12/30 08:10:44;;;;;;;343.55;37.80;;;2.50;99.90;;;;;;4164515;28;20059;-55
2021/12/30 08:12:47;;;;;;;115.80;27.52;;;2.40;99.90;;;;;;4161115;28;20064;-55
2021/12/30 08:14:49;;;;;;;247.68;31.30;;;2.40;99.90;;;;;;4161077;28;20068;-54
2021/12/30 08:16:51;;;;;;;305.52;29.38;;;2.50;99.90;;;;;;4157238;28;20057;-55
2021/12/30 08:18:54;;;;;;;380.25;30.30;;;2.60;99.90;;;;;;4163494;28;20041;-55
2021/12/30 08:20:56;;;;;;;98.70;24.08;;;2.50;99.90;;;;;;4163559;28;20077;-55
2021/12/30 08:22:58;;;;;;;69.95;18.83;;;2.50;99.90;;;;;;4163651;28;20450;-55
2021/12/30 08:25:00;;;;;;;66.63;22.08;;;2.70;99.90;;;;;;4161265;28;20041;-55
2021/12/30 08:27:03;;;;;;;43.22;18.67;;;2.90;99.90;;;;;;4161318;28;20077;-53
2021/12/30 08:29:06;;;;;;;72.68;24.73;;;2.90;99.90;;;;;;4156884;28;20041;-54
2021/12/30 08:31:08;;;;;;;82.60;19.55;;;2.90;99.90;;;;;;4165232;28;20050;-55
2021/12/30 08:33:10;;;;;;;125.38;17.67;;;2.90;99.90;;;;;;4155341;28;20038;-55
2021/12/30 08:35:14;;;;;;;85.45;17.52;;;2.90;99.90;;;;;;4165007;28;20658;-55
2021/12/30 08:37:16;;;;;;;194.35;23.98;;;2.90;99.90;;;;;;4163893;28;20042;-55
2021/12/30 08:39:18;;;;;;;68.78;22.30;;;2.90;99.90;;;;;;4158902;28;20041;-55
2021/12/30 08:41:21;;;;;;;;;;;2.80;99.90;;;;;;4161853;28;20087;-55
2021/12/30 08:43:24;;;;;;;14.52;13.63;;;2.90;99.90;;;;;;4157831;28;20021;-55
2021/12/30 08:45:26;;;;;;;10.43;10.10;;;3.10;99.90;;;;;;4160081;28;20394;-54
2021/12/30 08:47:31;;;;;;;12.55;11.98;;;3.30;99.90;;;;;;4163697;28;20096;-55
2021/12/30 08:49:33;;;;;;;10.90;10.60;;;3.40;99.90;;;;;;4157499;28;20034;-55
2021/12/30 08:51:36;;;;;;;19.77;18.08;;;3.50;99.90;;;;;;4160535;28;20052;-55
2021/12/30 08:53:40;;;;;;;16.35;15.23;;;3.70;99.90;;;;;;4161735;28;20486;-54
2021/12/30 08:55:46;;;;;;;17.90;16.55;;;3.80;99.90;;;;;;4160211;28;20048;-55
2021/12/30 08:57:49;;;;;;;14.73;13.95;;;3.90;99.90;;;;;;4161949;28;20029;-54
2021/12/30 08:59:51;;;;;;;14.38;13.48;;;3.90;99.90;;;;;;4161799;28;20087;-54
2021/12/30 09:01:54;;;;;;;;;;;3.80;99.90;;;;;;4157904;28;20037;-55
2021/12/30 09:03:56;;;;;;;16.02;14.38;;;3.90;99.90;;;;;;4159686;28;19968;-55
2021/12/30 09:05:58;;;;;;;13.55;12.93;;;3.90;99.90;;;;;;4161381;28;20042;-54
2021/12/30 09:08:01;;;;;;;15.57;14.77;;;3.90;99.90;;;;;;4158411;28;20133;-54
2021/12/30 09:10:07;;;;;;;16.50;15.35;;;3.90;99.90;;;;;;4160879;28;20040;-55
2021/12/30 09:12:09;;;;;;;14.98;14.48;;;3.90;99.90;;;;;;4157136;28;20498;-55
2021/12/30 09:14:13;;;;;;;15.75;15.15;;;3.80;99.90;;;;;;4158643;28;20145;-54
2021/12/30 09:16:15;;;;;;;23.10;21.27;;;3.90;99.90;;;;;;4159144;28;20469;-54
2021/12/30 09:18:18;;;;;;;21.75;20.17;;;3.90;99.90;;;;;;4160619;28;20090;-54
2021/12/30 09:20:20;;;;;;;46.95;26.13;;;3.90;99.90;;;;;;4157478;28;20072;-56
2021/12/30 09:22:23;;;;;;;24.77;22.85;;;3.90;99.90;;;;;;4161295;28;20038;-55
2021/12/30 09:24:25;;;;;;;22.60;20.70;;;4.10;99.90;;;;;;4160874;28;20132;-55
2021/12/30 09:26:27;;;;;;;20.90;19.27;;;4.10;99.90;;;;;;4160823;28;20041;-55
2021/12/30 09:28:29;;;;;;;27.20;24.67;;;4.00;99.90;;;;;;4158794;28;20070;-55
2021/12/30 09:30:31;;;;;;;23.30;21.23;;;4.20;99.90;;;;;;4156380;28;20062;-55
2021/12/30 09:32:33;;;;;;;;;;;4.30;99.90;;;;;;4161816;28;20140;-55
2021/12/30 09:34:35;;;;;;;15.95;14.82;;;4.40;99.90;;;;;;4157029;28;19957;-55
2021/12/30 09:36:38;;;;;;;12.48;11.98;;;4.50;99.90;;;;;;4158329;28;20045;-55
2021/12/30 09:38:40;;;;;;;10.00;9.70;;;4.50;99.90;;;;;;4157522;28;20061;-55
2021/12/30 09:40:42;;;;;;;8.10;7.90;;;4.60;99.90;;;;;;4158952;28;20116;-54
2021/12/30 09:42:47;;;;;;;10.38;9.50;;;4.80;99.90;;;;;;4157018;28;20052;-55
2021/12/30 09:44:50;;;;;;;13.32;12.32;;;4.90;99.90;;;;;;4161887;28;20045;-55
2021/12/30 09:46:52;;;;;;;10.35;10.02;;;5.00;99.90;;;;;;4158913;28;20060;-55
2021/12/30 09:48:54;;;;;;;8.18;7.93;;;5.20;99.90;;;;;;4160207;28;20076;-55
2021/12/30 09:50:58;;;;;;;11.20;10.30;;;5.30;99.90;;;;;;4157616;28;20153;-55
2021/12/30 09:53:00;;;;;;;10.27;9.65;;;5.40;99.90;;;;;;4159431;28;20076;-54
2021/12/30 09:55:04;;;;;;;7.00;6.90;;;5.70;99.90;;;;;;4157991;28;20037;-55
2021/12/30 09:57:06;;;;;;;;;;;5.70;99.90;;;;;;4166238;28;20588;-55
2021/12/30 09:59:10;;;;;;;13.48;12.55;;;5.80;99.90;;;;;;4159011;28;19921;-55
2021/12/30 10:01:12;;;;;;;23.98;21.75;;;5.80;99.90;;;;;;4153995;28;20132;-55
2021/12/30 10:03:15;;;;;;;13.50;12.60;;;6.10;99.90;;;;;;4151099;28;20040;-55
2021/12/30 10:05:24;;;;;;;10.18;9.50;;;6.20;99.90;;;;;;4161834;28;20034;-55
2021/12/30 10:07:26;;;;;;;9.90;9.23;;;6.20;99.90;;;;;;4156513;28;20045;-55
2021/12/30 10:09:46;;;;;;;11.35;10.45;;;6.30;99.90;;;;;;4161396;28;20103;-55
2021/12/30 10:11:52;;;;;;;8.77;8.10;;;6.40;99.90;;;;;;4154188;28;20724;-56
2021/12/30 10:13:57;;;;;;;8.73;8.27;;;6.50;99.90;;;;;;4160381;28;20038;-56
2021/12/30 10:16:02;;;;;;;7.28;7.10;;;6.40;99.90;;;;;;4151241;28;20545;-56
2021/12/30 10:18:05;;;;;;;7.25;7.00;;;6.40;99.90;;;;;;4156915;28;20041;-56
2021/12/30 10:20:18;;;;;;;7.63;7.20;;;6.50;99.90;;;;;;4150639;28;20064;-54
2021/12/30 10:22:23;;;;;;;9.48;8.93;;;6.50;99.90;;;;;;4163332;28;20136;-54
2021/12/30 10:24:32;;;;;;;8.27;7.85;;;6.60;99.90;;;;;;4159412;28;20049;-55
2021/12/30 10:26:54;;;;;;;10.52;10.05;;;6.60;99.90;;;;;;4156417;28;20046;-56
2021/12/30 10:28:59;;;;;;;8.53;8.13;;;6.80;99.90;;;;;;4157877;28;20072;-55
2021/12/30 10:31:24;;;;;;;7.13;6.93;;;6.80;99.90;;;;;;4162698;28;20041;-55
2021/12/30 10:33:29;;;;;;;7.32;7.13;;;6.90;99.90;;;;;;4160621;28;20095;-56
2021/12/30 10:35:35;;;;;;;8.85;8.57;;;7.00;99.90;;;;;;4158585;28;20120;-55
2021/12/30 10:37:43;;;;;;;6.97;6.57;;;7.00;99.90;;;;;;4161379;28;20116;-55